• Join FlightAware (Why Join?)
  • Login
  • US Flag 
06:11PM EST


 

Airport Tracker/Info


-or-


 

Live Flight TrackerFlight Track Log ✈ VH-QOJ ✈ 03-May-2012 ✈ YBUD / BDB - YBBN / BNE

Flight Track Log - Related Links

Times and Time Zones

All times are in EDT time to prevent confusion due to time zone crossing. See the VH-QOJ flight status page for this flight to view local times or setup timezone preferences in your user account.

Time Position Orientation Groundspeed Altitude Reporting Facility
EDT Latitude Longitude Course Direction KTS MPH feet Rate Location/Type
07:48PM -25.0199 152.3471 348° North 17,000  Level Aus ATC (Calculated)
07:49PM -25.0015 152.3428 171° South 206 237 4,900 -7,020 Descending Aus ATC (RADAR)
07:50PM -25.0521 152.3516 164° South 212 244 6,900 1,860 Climbing Aus ATC (RADAR)
07:51PM -25.1044 152.3677 167° South 240 276 8,200 1,800 Climbing Aus ATC (RADAR)
07:51PM -25.1457 152.3786 168° South 260 299 9,500 1,980 Climbing Aus ATC (RADAR)
07:52PM -25.2133 152.3941 169° South 275 316 11,200 1,740 Climbing Aus ATC (RADAR)
07:53PM -25.3164 152.4162 168° South 289 333 13,500 1,800 Climbing Aus ATC (RADAR)
07:54PM -25.3748 152.4302 167° South 285 328 15,000 1,680 Climbing Aus ATC (RADAR)
07:55PM -25.4464 152.4483 168° South 290 334 16,300 1,200 Climbing Aus ATC (RADAR)
07:56PM -25.5213 152.4655 168° South 306 352 17,200 600 Climbing Aus ATC (RADAR)
07:57PM -25.5704 152.4767 168° South 308 354 17,200  Level Aus ATC (RADAR)
07:58PM -25.6796 152.5034 168° South 273 314 17,200  Level Aus ATC (RADAR)
07:59PM -25.7603 152.5226 169° South 276 318 17,200  Level Aus ATC (RADAR)
08:00PM -25.7981 152.5311 167° South 277 319 17,200  Level Aus ATC (RADAR)
08:01PM -25.8674 152.5484 167° South 280 322 17,200  Level Aus ATC (RADAR)
08:01PM -25.9309 152.5643 168° South 281 323 17,200  Level Aus ATC (RADAR)
08:02PM -26.0003 152.5808 168° South 281 323 17,200  Level Aus ATC (RADAR)
08:04PM -26.1008 152.6046 168° South 274 315 17,200  Level Aus ATC (RADAR)
08:04PM -26.1629 152.6192 167° South 273 314 17,200  Level Aus ATC (RADAR)
08:05PM -26.2241 152.6344 167° South 268 308 17,200  Level Aus ATC (RADAR)
08:06PM -26.2668 152.6455 192° South 270 311 17,200  Level Aus ATC (RADAR)
08:07PM -26.3368 152.6285 204° Southwest 268 308 17,200  Level Aus ATC (RADAR)
08:09PM -26.4798 152.5576 204° Southwest 280 322 17,200 -120 Level Aus ATC (RADAR)
08:10PM -26.5455 152.5245 183° South 289 333 16,900 -780 Descending Aus ATC (RADAR)
08:11PM -26.6280 152.5199 126° Southeast 305 351 15,700 -1,080 Descending Aus ATC (RADAR)
08:12PM -26.6589 152.5680 115° Southeast 271 312 15,100 -1,020 Descending Aus ATC (RADAR)
08:12PM -26.6844 152.6286 119° Southeast 282 325 14,300 -1,380 Descending Aus ATC (RADAR)
08:14PM -26.7499 152.7636 151° Southeast 319 367 12,000 -1,440 Descending Aus ATC (RADAR)
08:15PM -26.8184 152.8059 154° Southeast 298 343 10,800 -1,440 Descending Aus ATC (RADAR)
08:16PM -26.8661 152.8324 152° Southeast 281 323 9,800 -1,380 Descending Aus ATC (RADAR)
08:16PM -26.9104 152.8587 151° Southeast 266 306 9,000 -1,260 Descending Aus ATC (RADAR)
08:17PM -26.9791 152.9009 151° Southeast 256 295 7,700 -1,200 Descending Aus ATC (RADAR)
08:19PM -27.0633 152.9527 152° Southeast 251 289 6,200 -1,140 Descending Aus ATC (RADAR)
08:19PM -27.1139 152.9836 151° Southeast 244 281 5,300 -1,140 Descending Aus ATC (RADAR)
08:20PM -27.1632 153.0143 152° Southeast 239 275 4,300 -1,140 Descending Aus ATC (RADAR)
08:21PM -27.1975 153.0349 151° Southeast 235 270 3,700 -1,140 Descending Aus ATC (RADAR)
08:22PM -27.2451 153.0646 140° Southeast 228 262 2,700 -1,200 Descending Aus ATC (RADAR)
08:23PM -27.2881 153.1045 136° Southeast 206 237 1,600 -900 Descending Aus ATC (RADAR)
08:24PM -27.3240 153.1435 179° South 156 180 1,000 -540 Descending Aus ATC (RADAR)
08:25PM -27.3573 153.1439 179° South 128 147 500 -480 Descending Aus ATC (RADAR)